West Jefferson, NC (28694)

11:45 AM EDT on August 31, 2015 (GMT -0400)
APRSWXNET | | Change Station
CLOSE
Current Station
Personal Weather Station
Location: West Jefferson, NC
Elevation: 3297 ft
Nearby Weather Stations

Elev 3297 ft 36.36 °N, 81.51 °W | Updated 15 minutes ago

Mostly Cloudy
Mostly Cloudy
74 °F
Feels Like 77 °F
N
3
Wind Variable Wind from East
Gusts 9.0 mph

Today
High -- | Low -- °F
--% Chance of Precip.
Yesterday
High -- | Low -- °F
Precip. -- in
6:56 AM 7:55 PM
Waning Gibbous, 95% visible
Pressure 30.25 in
Visibility 10.0 miles
Clouds Overcast 9000 ft
Heat Index 77 °F
Dew Point 57 °F
Humidity 55%
Rainfall in
Snow Depth Not available.
UV 2 out of 12
Pollen 8.30 out of 12
Air Quality Not available.
Flu Activity Not available.
METAR KGEV 311515Z AUTO 36003KT 10SM OVC090 21/12 A3025 RMK AO2 T02050118
Pressure 30.25 in
Visibility 10.0 miles
Clouds Overcast 9000 ft
Heat Index 77 °F
Dew Point 57 °F
Humidity 55%
Rainfall in
Snow Depth Not available.
UV 2 out of 12
Pollen 8.30 out of 12
Air Quality Not available.
Flu Activity Not available.
METAR KGEV 311515Z AUTO 36003KT 10SM OVC090 21/12 A3025 RMK AO2 T02050118

10-Day Weather Forecast

×

Almanac

Astronomy

Aug. 31, 2015 Rise Set
Actual Time
Civil Twilight
Nautical Twilight
Astronomical Twilight
Moon
Length of Visible Light
Length of Day
Tomorrow will be .
, % of the Moon is Illuminated

Today's Extremes

State Highs State Lows

Community

WunderPhotos

Upload Photos

1,851,282 photos uploaded!

WunderBlogs® & News

Nearby

Air Quality

  Air Quality AQ Index Pollutant
Not available.

Snow Depth

Station Depth Elevation

Earthquake Activity

City Distance Mag. Time & Date
Minimum magnitude displayed is 2.5.

Coastal Water Temperatures

Place Temperature

Stations

Nearby Weather Stations

Station Location Temp. Windchill Dew Point Humidity Wind Precip. Elev Updated Type